createdAt,value
2019-05-15T00:00:32.664Z,69.80
2019-05-15T00:01:33.749Z,69.52
2019-05-15T00:02:35.147Z,69.99
2019-05-15T00:03:38.854Z,70.09
2019-05-15T00:04:38.322Z,69.90
2019-05-15T00:05:39.459Z,70.28
2019-05-15T00:06:40.666Z,70.37
2019-05-15T00:07:42.070Z,70.18
2019-05-15T00:08:43.480Z,69.99
2019-05-15T00:09:44.890Z,69.80
2019-05-15T00:10:48.373Z,70.37
2019-05-15T00:11:48.180Z,70.37
2019-05-15T00:12:49.030Z,70.37
2019-05-15T00:13:50.429Z,70.84
2019-05-15T00:14:51.843Z,70.56
2019-05-15T00:15:53.254Z,71.03
2019-05-15T00:16:54.653Z,70.56
2019-05-15T00:17:57.799Z,71.13
2019-05-15T00:18:58.985Z,71.03
2019-05-15T00:19:58.791Z,71.13
2019-05-15T00:21:00.183Z,70.94
2019-05-15T00:22:01.595Z,71.13
2019-05-15T00:23:02.987Z,70.94
2019-05-15T00:24:04.424Z,70.84
2019-05-15T00:25:05.841Z,71.22
2019-05-15T00:26:08.985Z,71.89
2019-05-15T00:27:08.630Z,71.51
2019-05-15T00:28:10.029Z,71.51
2019-05-15T00:29:15.816Z,71.60
2019-05-15T00:30:12.806Z,71.60
2019-05-15T00:31:14.204Z,71.80
2019-05-15T00:32:15.600Z,71.80
2019-05-15T00:33:19.156Z,71.60
2019-05-15T00:34:18.450Z,71.70
2019-05-15T00:35:19.739Z,71.60
2019-05-15T00:36:21.143Z,71.98
2019-05-15T00:37:22.531Z,71.98
2019-05-15T00:38:23.925Z,71.89
2019-05-15T00:39:25.316Z,71.80
2019-05-15T00:40:28.773Z,71.98
2019-05-15T00:41:28.046Z,72.27
2019-05-15T00:42:29.435Z,71.98
2019-05-15T00:43:30.815Z,71.70
2019-05-15T00:44:32.207Z,72.17
2019-05-15T00:45:33.599Z,72.45
2019-05-15T00:46:34.980Z,72.27
2019-05-15T00:47:36.371Z,72.55
2019-05-15T00:48:39.494Z,72.84
2019-05-15T00:49:39.108Z,72.45
2019-05-15T00:50:40.490Z,72.64
2019-05-15T00:51:41.876Z,72.45
2019-05-15T00:52:43.260Z,73.22
2019-05-15T00:53:44.650Z,72.80
2019-05-15T00:54:48.244Z,73.41
2019-05-15T00:55:48.572Z,72.99
2019-05-15T00:56:48.718Z,72.89
2019-05-15T00:57:50.117Z,72.89
2019-05-15T00:58:51.504Z,72.89
2019-05-15T00:59:52.885Z,73.03
2019-05-15T01:00:54.277Z,73.08
2019-05-15T01:01:55.662Z,72.80
2019-05-15T01:02:57.824Z,72.99
2019-05-15T01:03:58.625Z,73.03
2019-05-15T01:04:59.743Z,73.12
2019-05-15T01:06:01.119Z,72.71
2019-05-15T01:07:02.510Z,72.61
2019-05-15T01:08:03.909Z,72.23
2019-05-15T01:09:05.294Z,72.23
2019-05-15T01:10:06.672Z,72.14
2019-05-15T01:11:09.177Z,72.23
2019-05-15T01:12:09.408Z,71.98
2019-05-15T01:13:10.802Z,72.27
2019-05-15T01:14:12.328Z,72.55
2019-05-15T01:15:13.532Z,72.61
2019-05-15T01:16:14.918Z,72.61
2019-05-15T01:17:18.341Z,72.42
2019-05-15T01:18:18.753Z,72.71
2019-05-15T01:19:19.022Z,72.80
2019-05-15T01:20:20.446Z,72.80
2019-05-15T01:21:21.834Z,72.61
2019-05-15T01:22:23.222Z,72.33
2019-05-15T01:23:24.611Z,72.33
2019-05-15T01:24:28.121Z,72.42
2019-05-15T01:25:28.047Z,72.23
2019-05-15T01:26:28.695Z,72.61
2019-05-15T01:27:30.085Z,72.80
2019-05-15T01:28:31.471Z,72.80
2019-05-15T01:29:41.995Z,73.18
2019-05-15T01:30:34.195Z,73.27
2019-05-15T01:31:37.894Z,72.89
2019-05-15T01:32:39.121Z,73.18
2019-05-15T01:33:39.010Z,72.99
2019-05-15T01:34:39.615Z,73.56
2019-05-15T01:35:40.993Z,73.18
2019-05-15T01:36:42.383Z,73.18
2019-05-15T01:37:43.787Z,73.08
2019-05-15T01:38:45.177Z,73.18
2019-05-15T01:39:48.415Z,73.08
2019-05-15T01:40:48.471Z,72.80
2019-05-15T01:41:49.656Z,72.80
2019-05-15T01:42:50.591Z,72.71
2019-05-15T01:43:51.969Z,73.18
2019-05-15T01:44:53.356Z,73.18
2019-05-15T01:45:54.736Z,73.75
2019-05-15T01:46:56.123Z,73.94
2019-05-15T01:47:58.585Z,74.03
2019-05-15T01:48:58.845Z,73.84
2019-05-15T01:50:00.227Z,73.94
2019-05-15T01:51:01.614Z,73.94
2019-05-15T01:52:02.995Z,74.41
2019-05-15T01:53:04.385Z,74.03
2019-05-15T01:54:05.764Z,74.41
2019-05-15T01:55:08.833Z,74.88
2019-05-15T01:56:08.659Z,74.79
2019-05-15T01:57:09.834Z,74.69
2019-05-15T01:58:11.213Z,75.07
2019-05-15T01:59:12.595Z,75.36
2019-05-15T02:00:13.989Z,75.26
2019-05-15T02:01:15.369Z,75.55
2019-05-15T02:02:18.574Z,76.12
2019-05-15T02:03:18.407Z,75.55
2019-05-15T02:04:19.699Z,75.93
2019-05-15T02:05:20.823Z,75.93
2019-05-15T02:06:22.214Z,76.31
2019-05-15T02:07:23.606Z,76.12
2019-05-15T02:08:24.988Z,76.59
2019-05-15T02:09:27.941Z,76.40
2019-05-15T02:10:29.194Z,76.50
2019-05-15T02:11:29.070Z,76.31
2019-05-15T02:12:30.460Z,76.68
2019-05-15T02:13:31.863Z,77.06
2019-05-15T02:14:33.230Z,77.16
2019-05-15T02:15:34.611Z,77.45
2019-05-15T02:16:35.996Z,77.16
2019-05-15T02:17:39.103Z,77.25
2019-05-15T02:18:39.114Z,77.16
2019-05-15T02:19:40.103Z,77.45
2019-05-15T02:20:41.496Z,77.73
2019-05-15T02:21:42.891Z,77.50
2019-05-15T02:22:44.275Z,77.97
2019-05-15T02:23:48.021Z,77.88
2019-05-15T02:24:48.247Z,78.07
2019-05-15T02:25:48.358Z,78.30
2019-05-15T02:26:49.741Z,78.07
2019-05-15T02:27:51.133Z,78.64
2019-05-15T02:28:52.519Z,78.73
2019-05-15T02:30:11.410Z,79.02
2019-05-15T02:30:55.246Z,79.02
2019-05-15T02:31:59.247Z,78.83
2019-05-15T02:32:58.958Z,79.21
2019-05-15T02:33:59.335Z,79.11
2019-05-15T02:35:00.722Z,78.73
2019-05-15T02:36:02.102Z,79.68
2019-05-15T02:37:03.487Z,79.21
2019-05-15T02:38:04.872Z,79.39
2019-05-15T02:39:08.682Z,79.68
2019-05-15T02:40:09.938Z,79.96
2019-05-15T02:41:09.880Z,80.06
2019-05-15T02:42:10.303Z,80.06
2019-05-15T02:43:11.693Z,80.34
2019-05-15T02:44:13.073Z,80.25
2019-05-15T02:45:14.465Z,80.34
2019-05-15T02:46:19.155Z,80.91
2019-05-15T02:47:19.686Z,80.72
2019-05-15T02:48:19.998Z,80.82
2019-05-15T02:49:20.527Z,80.82
2019-05-15T02:50:21.908Z,80.72
2019-05-15T02:51:23.298Z,81.01
2019-05-15T02:52:24.706Z,81.10
2019-05-15T02:53:26.083Z,81.10
2019-05-15T02:54:30.003Z,81.29
2019-05-15T02:55:29.711Z,81.20
2019-05-15T02:56:30.182Z,81.67
2019-05-15T02:57:31.561Z,81.76
2019-05-15T02:58:32.944Z,82.05
2019-05-15T02:59:34.336Z,82.33
2019-05-15T03:00:45.996Z,82.43
2019-05-15T03:01:40.002Z,82.24
2019-05-15T03:02:41.152Z,82.62
2019-05-15T03:03:39.799Z,83.18
2019-05-15T03:04:41.181Z,83.00
2019-05-15T03:05:42.648Z,83.75
2019-05-15T03:06:44.026Z,83.75
2019-05-15T03:07:45.411Z,83.85
2019-05-15T03:08:49.197Z,84.04
2019-05-15T03:09:49.694Z,84.27
2019-05-15T03:10:49.944Z,84.74
2019-05-15T03:11:50.853Z,84.74
2019-05-15T03:12:52.247Z,84.65
2019-05-15T03:13:53.630Z,85.31
2019-05-15T03:14:55.004Z,84.94
2019-05-15T03:15:59.470Z,85.41
2019-05-15T03:16:59.636Z,85.41
2019-05-15T03:18:00.374Z,85.88
2019-05-15T03:19:00.445Z,85.88
2019-05-15T03:20:01.851Z,86.07
2019-05-15T03:21:03.265Z,86.26
2019-05-15T03:22:04.653Z,86.16
2019-05-15T03:23:09.055Z,86.26
2019-05-15T03:24:09.853Z,85.88
2019-05-15T03:25:10.502Z,86.55
2019-05-15T03:26:10.125Z,86.35
2019-05-15T03:27:11.497Z,87.12
2019-05-15T03:28:12.890Z,86.35
2019-05-15T03:29:14.283Z,86.55
2019-05-15T03:30:21.023Z,86.07
2019-05-15T03:31:35.066Z,87.02
2019-05-15T03:32:33.510Z,86.74
2019-05-15T03:33:27.076Z,86.74
2019-05-15T03:34:28.399Z,86.35
2019-05-15T03:35:22.983Z,86.64
2019-05-15T03:36:24.612Z,86.64
2019-05-15T03:37:25.151Z,86.26
2019-05-15T03:38:29.595Z,86.55
2019-05-15T03:39:29.626Z,86.26
2019-05-15T03:40:29.943Z,86.74
2019-05-15T03:41:30.585Z,86.64
2019-05-15T03:42:31.977Z,86.74
2019-05-15T03:43:33.358Z,86.35
2019-05-15T03:44:34.746Z,86.55
2019-05-15T03:45:39.989Z,86.74
2019-05-15T03:46:39.911Z,86.74
2019-05-15T03:47:40.177Z,86.74
2019-05-15T03:48:40.593Z,86.07
2019-05-15T03:49:41.560Z,86.07
2019-05-15T03:50:42.943Z,85.60
2019-05-15T03:51:45.977Z,85.78
2019-05-15T03:52:45.690Z,85.64
2019-05-15T03:53:49.454Z,85.45
2019-05-15T03:54:49.603Z,84.98
2019-05-15T03:55:49.804Z,84.78
2019-05-15T03:56:51.200Z,84.78
2019-05-15T03:57:52.584Z,84.41
2019-05-15T03:58:53.984Z,83.94
2019-05-15T03:59:55.367Z,83.65
2019-05-15T04:00:59.869Z,83.46
2019-05-15T04:01:59.913Z,82.89
2019-05-15T04:03:00.343Z,82.32
2019-05-15T04:04:01.729Z,82.42
2019-05-15T04:05:03.129Z,82.17
2019-05-15T04:06:04.518Z,81.51
2019-05-15T04:07:09.005Z,81.13
2019-05-15T04:08:10.391Z,80.94
2019-05-15T04:09:09.578Z,80.75
2019-05-15T04:10:10.368Z,81.13
2019-05-15T04:11:11.334Z,80.46
2019-05-15T04:12:12.728Z,79.99
2019-05-15T04:13:14.116Z,79.61
2019-05-15T04:14:15.518Z,79.23
2019-05-15T04:15:18.743Z,78.38
2019-05-15T04:16:19.262Z,78.19
2019-05-15T04:17:20.183Z,78.00
2019-05-15T04:18:21.549Z,77.71
2019-05-15T04:19:22.937Z,77.56
2019-05-15T04:20:24.327Z,77.37
2019-05-15T04:21:25.727Z,77.18
2019-05-15T04:22:29.090Z,77.37
2019-05-15T04:23:30.071Z,76.71
2019-05-15T04:24:30.110Z,76.61
2019-05-15T04:25:31.194Z,76.52
2019-05-15T04:26:32.546Z,75.85
2019-05-15T04:27:33.930Z,75.47
2019-05-15T04:28:35.323Z,75.76
2019-05-15T04:29:39.500Z,75.13
2019-05-15T04:30:39.288Z,74.85
2019-05-15T04:31:51.653Z,74.56
2019-05-15T04:32:40.775Z,74.37
2019-05-15T04:33:42.175Z,73.61
2019-05-15T04:34:43.570Z,73.71
2019-05-15T04:35:44.960Z,72.85
2019-05-15T04:36:49.468Z,73.14
2019-05-15T04:37:49.541Z,72.38
2019-05-15T04:38:49.755Z,71.90
2019-05-15T04:39:50.412Z,71.33
2019-05-15T04:40:51.797Z,71.43
2019-05-15T04:41:53.180Z,71.18
2019-05-15T04:42:54.575Z,70.99
2019-05-15T04:43:55.968Z,69.75
2019-05-15T04:44:59.477Z,69.85
2019-05-15T04:46:02.615Z,69.27
2019-05-15T04:47:00.064Z,69.18
2019-05-15T04:48:01.465Z,68.42
2019-05-15T04:49:02.873Z,68.61
2019-05-15T04:50:04.259Z,68.80
2019-05-15T04:51:05.649Z,68.23
2019-05-15T04:52:09.760Z,68.33
2019-05-15T04:53:10.609Z,67.38
2019-05-15T04:54:09.912Z,67.85
2019-05-15T04:55:11.125Z,67.60
2019-05-15T04:56:12.519Z,67.41
2019-05-15T04:57:13.908Z,66.84
2019-05-15T04:58:15.303Z,66.46
2019-05-15T04:59:19.273Z,66.65
2019-05-15T05:00:19.889Z,65.99
2019-05-15T05:01:19.941Z,65.51
2019-05-15T05:02:26.571Z,66.17
2019-05-15T05:03:22.118Z,65.32
2019-05-15T05:04:23.526Z,65.13
2019-05-15T05:05:24.916Z,65.03
2019-05-15T05:06:29.233Z,64.84
2019-05-15T05:07:29.592Z,64.46
2019-05-15T05:08:29.288Z,64.18
2019-05-15T05:09:30.365Z,64.18
2019-05-15T05:10:31.763Z,63.60
2019-05-15T05:11:33.151Z,63.70
2019-05-15T05:12:34.548Z,64.27
2019-05-15T05:13:35.942Z,63.99
2019-05-15T05:14:39.157Z,63.60
2019-05-15T05:15:38.868Z,63.45
2019-05-15T05:16:40.050Z,63.13
2019-05-15T05:17:41.443Z,63.13
2019-05-15T05:18:42.841Z,63.54
2019-05-15T05:19:44.229Z,63.64
2019-05-15T05:20:45.624Z,63.23
2019-05-15T05:21:47.917Z,63.83
2019-05-15T05:22:48.414Z,63.17
2019-05-15T05:23:49.763Z,63.64
2019-05-15T05:24:51.159Z,62.65
2019-05-15T05:25:52.549Z,62.85
2019-05-15T05:26:53.946Z,63.13
2019-05-15T05:27:55.337Z,63.04
2019-05-15T05:29:01.323Z,63.26
2019-05-15T05:29:59.048Z,62.88
2019-05-15T05:31:00.464Z,62.59
2019-05-15T05:32:01.852Z,62.59
2019-05-15T05:33:03.246Z,62.78
2019-05-15T05:34:04.646Z,62.69
2019-05-15T05:35:08.197Z,62.88
2019-05-15T05:36:07.960Z,62.59
2019-05-15T05:37:08.778Z,63.26
2019-05-15T05:38:10.200Z,63.26
2019-05-15T05:39:13.309Z,62.97
2019-05-15T05:40:12.948Z,63.20
2019-05-15T05:41:14.350Z,62.72
2019-05-15T05:42:15.730Z,61.96
2019-05-15T05:43:18.387Z,62.34
2019-05-15T05:44:18.928Z,61.29
2019-05-15T05:45:19.827Z,60.63
2019-05-15T05:46:21.249Z,60.53
2019-05-15T05:47:22.634Z,61.10
2019-05-15T05:48:24.051Z,60.72
2019-05-15T05:49:25.443Z,61.00
2019-05-15T05:50:28.803Z,60.37
2019-05-15T05:51:28.288Z,58.04
2019-05-15T05:52:29.577Z,54.74
2019-05-15T05:53:30.969Z,52.86
2019-05-15T05:54:32.385Z,52.64
2019-05-15T05:55:33.773Z,52.45
2019-05-15T05:56:35.161Z,53.12
2019-05-15T05:57:38.124Z,53.66
2019-05-15T05:58:38.966Z,54.04
2019-05-15T05:59:39.309Z,55.19
2019-05-15T06:00:40.721Z,54.78
2019-05-15T06:01:44.194Z,55.73
2019-05-15T06:02:47.582Z,55.92
2019-05-15T06:03:44.876Z,55.73
2019-05-15T06:04:47.839Z,55.63
2019-05-15T06:05:49.475Z,55.26
2019-05-15T06:07:05.555Z,55.16
2019-05-15T06:07:50.371Z,55.92
2019-05-15T06:08:51.746Z,56.30
2019-05-15T06:09:53.146Z,56.02
2019-05-15T06:10:54.538Z,56.21
2019-05-15T06:11:58.168Z,55.73
2019-05-15T06:12:58.714Z,55.16
2019-05-15T06:13:58.685Z,54.68
2019-05-15T06:15:00.989Z,55.07
2019-05-15T06:16:02.397Z,54.88
2019-05-15T06:17:03.815Z,54.61
2019-05-15T06:18:05.203Z,54.24
2019-05-15T06:19:08.282Z,54.14
2019-05-15T06:20:08.101Z,54.04
2019-05-15T06:21:09.438Z,54.07
2019-05-15T06:22:10.681Z,52.73
2019-05-15T06:23:12.076Z,52.83
2019-05-15T06:24:13.513Z,53.31
2019-05-15T06:25:14.908Z,52.83
2019-05-15T06:26:16.300Z,51.43
2019-05-15T06:27:19.826Z,50.85
2019-05-15T06:28:19.510Z,50.31
2019-05-15T06:29:20.484Z,49.73
2019-05-15T06:30:26.705Z,49.73
2019-05-15T06:31:23.278Z,49.73
2019-05-15T06:32:24.739Z,50.04
2019-05-15T06:33:27.756Z,50.24
2019-05-15T06:34:28.596Z,49.76
2019-05-15T06:35:31.271Z,49.57
2019-05-15T06:36:30.341Z,49.11
2019-05-15T06:37:31.734Z,48.83
2019-05-15T06:38:33.139Z,48.83
2019-05-15T06:39:34.544Z,49.21
2019-05-15T06:40:35.970Z,49.40
2019-05-15T06:41:39.014Z,48.73
2019-05-15T06:42:39.371Z,47.68
2019-05-15T06:43:40.096Z,47.30
2019-05-15T06:44:41.495Z,47.89
2019-05-15T06:45:42.911Z,47.80
2019-05-15T06:46:44.309Z,47.13
2019-05-15T06:47:45.719Z,47.23
2019-05-15T06:48:48.613Z,47.06
2019-05-15T06:49:48.635Z,46.77
2019-05-15T06:50:49.861Z,46.67
2019-05-15T06:51:51.270Z,46.56
2019-05-15T06:52:52.665Z,46.37
2019-05-15T06:53:54.072Z,47.13
2019-05-15T06:54:55.469Z,46.94
2019-05-15T06:55:58.495Z,46.37
2019-05-15T06:56:58.347Z,46.27
2019-05-15T06:57:59.616Z,47.16
2019-05-15T06:59:01.015Z,46.48
2019-05-15T07:00:02.414Z,46.48
2019-05-15T07:01:03.816Z,46.77
2019-05-15T07:02:05.242Z,46.30
2019-05-15T07:03:18.117Z,46.39
2019-05-15T07:04:08.414Z,46.39
2019-05-15T07:05:09.352Z,47.06
2019-05-15T07:06:10.752Z,46.89
2019-05-15T07:07:12.149Z,46.70
2019-05-15T07:08:13.554Z,46.22
2019-05-15T07:09:14.983Z,47.27
2019-05-15T07:10:18.862Z,46.51
2019-05-15T07:11:19.135Z,46.61
2019-05-15T07:12:19.109Z,46.41
2019-05-15T07:13:20.509Z,46.51
2019-05-15T07:14:21.915Z,46.12
2019-05-15T07:15:23.346Z,46.82
2019-05-15T07:16:24.739Z,47.01
2019-05-15T07:17:28.586Z,46.44
2019-05-15T07:18:28.382Z,45.96
2019-05-15T07:19:28.863Z,46.44
2019-05-15T07:20:30.278Z,46.34
2019-05-15T07:21:31.669Z,46.34
2019-05-15T07:22:33.062Z,45.96
2019-05-15T07:23:34.467Z,46.05
2019-05-15T07:24:38.213Z,46.44
2019-05-15T07:25:39.010Z,46.15
2019-05-15T07:26:39.136Z,44.54
2019-05-15T07:27:39.980Z,44.26
2019-05-15T07:28:41.390Z,45.02
2019-05-15T07:29:42.792Z,45.79
2019-05-15T07:30:44.186Z,46.08
2019-05-15T07:31:47.710Z,45.79
2019-05-15T07:32:48.733Z,46.17
2019-05-15T07:33:49.208Z,44.64
2019-05-15T07:34:49.685Z,44.26
2019-05-15T07:35:51.080Z,44.16
2019-05-15T07:36:52.486Z,43.49
2019-05-15T07:37:53.904Z,44.06
2019-05-15T07:38:57.809Z,42.82
2019-05-15T07:39:58.864Z,42.72
2019-05-15T07:41:03.853Z,42.91
2019-05-15T07:41:59.409Z,42.51
2019-05-15T07:43:00.809Z,43.66
2019-05-15T07:44:02.209Z,43.97
2019-05-15T07:45:03.610Z,43.49
2019-05-15T07:46:05.031Z,42.34
2019-05-15T07:47:08.735Z,40.81
2019-05-15T07:48:09.165Z,39.75
2019-05-15T07:49:09.289Z,39.94
2019-05-15T07:50:10.560Z,40.33
2019-05-15T07:51:11.990Z,40.71
2019-05-15T07:52:13.376Z,40.42
2019-05-15T07:53:14.784Z,40.61
2019-05-15T07:54:18.042Z,41.00
2019-05-15T07:55:18.480Z,41.69
2019-05-15T07:56:18.897Z,40.73
2019-05-15T07:57:20.300Z,40.64
2019-05-15T07:58:22.070Z,40.64
2019-05-15T07:59:23.174Z,40.04
2019-05-15T08:00:24.586Z,40.61
2019-05-15T08:01:25.989Z,40.33
2019-05-15T08:02:28.426Z,40.52
2019-05-15T08:03:29.220Z,40.04
2019-05-15T08:04:32.900Z,40.04
2019-05-15T08:05:31.485Z,40.33
2019-05-15T08:06:32.889Z,40.23
2019-05-15T08:07:34.295Z,40.42
2019-05-15T08:08:35.695Z,40.61
2019-05-15T08:09:38.909Z,40.71
2019-05-15T08:10:39.651Z,40.33
2019-05-15T08:11:39.833Z,40.61
2019-05-15T08:12:41.243Z,40.61
2019-05-15T08:13:42.645Z,40.81
2019-05-15T08:14:47.042Z,40.52
2019-05-15T08:15:45.405Z,40.23
2019-05-15T08:16:48.568Z,39.08
2019-05-15T08:18:03.255Z,39.65
2019-05-15T08:18:49.525Z,40.33
2019-05-15T08:19:50.931Z,39.01
2019-05-15T08:20:52.346Z,39.94
2019-05-15T08:21:53.746Z,39.68
2019-05-15T08:22:55.147Z,39.01
2019-05-15T08:23:58.867Z,39.29
2019-05-15T08:24:59.123Z,37.95
2019-05-15T08:25:59.283Z,37.09
2019-05-15T08:27:00.694Z,36.72
2019-05-15T08:28:02.104Z,36.91
2019-05-15T08:29:03.508Z,35.57
2019-05-15T08:30:04.915Z,35.86
2019-05-15T08:31:09.293Z,35.38
2019-05-15T08:32:08.434Z,35.48
2019-05-15T08:33:09.068Z,35.57
2019-05-15T08:34:15.600Z,35.19
2019-05-15T08:35:12.772Z,35.19
2019-05-15T08:36:13.189Z,34.81
2019-05-15T08:37:14.595Z,34.81
2019-05-15T08:38:17.982Z,34.71
2019-05-15T08:39:18.957Z,34.63
2019-05-15T08:40:18.718Z,34.34
2019-05-15T08:41:20.132Z,33.96
2019-05-15T08:42:21.529Z,34.53
2019-05-15T08:43:22.925Z,34.25
2019-05-15T08:44:24.334Z,33.96
2019-05-15T08:45:28.139Z,33.58
2019-05-15T08:46:27.976Z,33.19
2019-05-15T08:47:29.670Z,33.39
2019-05-15T08:48:32.543Z,33.58
2019-05-15T08:49:31.267Z,33.58
2019-05-15T08:50:32.672Z,33.19
2019-05-15T08:51:34.078Z,33.19
2019-05-15T08:52:35.480Z,32.81
2019-05-15T08:53:37.970Z,32.98
2019-05-15T08:54:38.410Z,33.29
2019-05-15T08:55:39.610Z,33.17
2019-05-15T08:56:41.009Z,32.79
2019-05-15T08:57:42.426Z,32.89
2019-05-15T08:58:43.821Z,32.98
2019-05-15T08:59:45.231Z,32.98
2019-05-15T09:00:51.375Z,32.41
2019-05-15T09:01:48.971Z,31.85
2019-05-15T09:02:49.386Z,31.85
2019-05-15T09:03:50.790Z,31.95
2019-05-15T09:04:52.197Z,31.66
2019-05-15T09:05:53.604Z,31.66
2019-05-15T09:06:55.033Z,31.64
2019-05-15T09:07:57.979Z,31.45
2019-05-15T09:08:58.491Z,31.26
2019-05-15T09:09:59.192Z,31.64
2019-05-15T09:11:00.582Z,31.54
2019-05-15T09:12:01.993Z,31.74
2019-05-15T09:13:03.401Z,32.41
2019-05-15T09:14:04.804Z,32.79
2019-05-15T09:15:07.736Z,32.70
2019-05-15T09:16:08.352Z,31.84
2019-05-15T09:17:08.923Z,31.45
2019-05-15T09:18:16.040Z,32.60
2019-05-15T09:19:11.724Z,31.93
2019-05-15T09:20:13.135Z,31.64
2019-05-15T09:21:14.538Z,31.93
2019-05-15T09:22:18.530Z,31.64
2019-05-15T09:23:19.240Z,31.45
2019-05-15T09:24:19.903Z,31.92
2019-05-15T09:25:20.062Z,32.51
2019-05-15T09:26:21.476Z,32.41
2019-05-15T09:27:22.894Z,32.31
2019-05-15T09:28:24.297Z,31.95
2019-05-15T09:29:25.698Z,30.99
2019-05-15T09:30:28.613Z,30.58
2019-05-15T09:31:28.626Z,30.51
2019-05-15T09:32:29.855Z,29.93
2019-05-15T09:33:31.272Z,29.55
2019-05-15T09:34:46.879Z,29.93
2019-05-15T09:35:34.039Z,30.41
2019-05-15T09:36:35.450Z,30.99
2019-05-15T09:37:38.618Z,31.66
2019-05-15T09:38:39.056Z,31.66
2019-05-15T09:39:40.265Z,31.67
2019-05-15T09:40:46.156Z,31.96
2019-05-15T09:41:43.023Z,31.38
2019-05-15T09:42:44.425Z,31.38
2019-05-15T09:43:45.833Z,31.10
2019-05-15T09:44:48.633Z,31.10
2019-05-15T09:45:49.222Z,30.62
2019-05-15T09:46:50.061Z,30.43
2019-05-15T09:47:51.489Z,30.54
2019-05-15T09:48:52.973Z,29.77
2019-05-15T09:49:54.501Z,29.77
2019-05-15T09:50:58.525Z,29.96
2019-05-15T09:51:58.601Z,28.61
2019-05-15T09:52:59.018Z,28.41
2019-05-15T09:54:00.178Z,28.89
2019-05-15T09:55:02.106Z,28.22
2019-05-15T09:56:03.385Z,28.31
2019-05-15T09:57:04.797Z,29.27
2019-05-15T09:58:08.091Z,29.27
2019-05-15T09:59:08.809Z,29.45
2019-05-15T10:00:09.723Z,29.83
2019-05-15T10:01:11.121Z,30.12
2019-05-15T10:02:12.587Z,30.43
2019-05-15T10:03:14.010Z,30.14
2019-05-15T10:04:15.438Z,29.27
2019-05-15T10:05:18.515Z,29.66
2019-05-15T10:06:20.553Z,29.47
2019-05-15T10:07:19.681Z,29.94
2019-05-15T10:08:21.511Z,30.04
2019-05-15T10:09:22.450Z,29.27
2019-05-15T10:10:23.988Z,29.27
2019-05-15T10:11:25.398Z,29.48
2019-05-15T10:12:33.894Z,29.27
2019-05-15T10:13:28.951Z,29.10
2019-05-15T10:14:29.762Z,28.50
2019-05-15T10:15:30.959Z,28.22
2019-05-15T10:16:32.392Z,28.03
2019-05-15T10:17:33.822Z,28.41
2019-05-15T10:18:35.248Z,28.41
2019-05-15T10:19:36.658Z,28.31
2019-05-15T10:20:38.060Z,28.88
2019-05-15T10:21:39.965Z,28.88
2019-05-15T10:22:40.877Z,29.06
2019-05-15T10:23:42.280Z,29.06
2019-05-15T10:24:43.701Z,29.35
2019-05-15T10:25:45.095Z,29.45
2019-05-15T10:26:48.884Z,29.06
2019-05-15T10:27:48.791Z,27.63
2019-05-15T10:28:49.683Z,26.85
2019-05-15T10:29:50.727Z,26.37
2019-05-15T10:30:52.173Z,26.65
2019-05-15T10:31:53.580Z,26.27
2019-05-15T10:32:54.985Z,26.19
2019-05-15T10:33:58.161Z,25.41
2019-05-15T10:34:58.624Z,26.46
2019-05-15T10:35:59.275Z,26.46
2019-05-15T10:37:00.496Z,26.56
2019-05-15T10:38:01.900Z,27.53
2019-05-15T10:39:03.335Z,26.57
2019-05-15T10:40:04.722Z,26.76
2019-05-15T10:41:13.897Z,26.48
2019-05-15T10:42:08.198Z,25.99
2019-05-15T10:43:09.237Z,25.42
2019-05-15T10:44:10.228Z,26.65
2019-05-15T10:45:11.645Z,27.42
2019-05-15T10:46:13.746Z,26.27
2019-05-15T10:47:14.414Z,25.98
2019-05-15T10:48:18.718Z,26.56
2019-05-15T10:49:18.928Z,26.56
2019-05-15T10:50:19.038Z,26.48
2019-05-15T10:51:19.988Z,26.09
2019-05-15T10:52:21.510Z,26.28
2019-05-15T10:53:22.896Z,25.70
2019-05-15T10:54:24.306Z,25.41
2019-05-15T10:55:25.713Z,25.41
2019-05-15T10:56:28.988Z,25.12
2019-05-15T10:57:28.507Z,25.31
2019-05-15T10:58:29.913Z,25.31
2019-05-15T10:59:31.322Z,25.21
2019-05-15T11:00:32.727Z,24.45
2019-05-15T11:01:34.137Z,24.15
2019-05-15T11:02:35.552Z,24.64
2019-05-15T11:03:39.716Z,25.12
2019-05-15T11:04:39.290Z,24.34
2019-05-15T11:05:45.328Z,24.54
2019-05-15T11:06:41.033Z,25.20
2019-05-15T11:07:42.442Z,25.02
2019-05-15T11:08:43.854Z,24.55
2019-05-15T11:09:45.279Z,24.74
2019-05-15T11:10:49.206Z,24.35
2019-05-15T11:11:51.201Z,24.18
2019-05-15T11:12:49.388Z,24.18
2019-05-15T11:13:50.801Z,23.79
2019-05-15T11:14:52.208Z,23.88
2019-05-15T11:15:53.616Z,23.80
2019-05-15T11:16:55.045Z,23.80
2019-05-15T11:17:58.305Z,22.75
2019-05-15T11:18:58.560Z,22.45
2019-05-15T11:19:59.182Z,21.78
2019-05-15T11:21:00.588Z,22.83
2019-05-15T11:22:02.020Z,22.92
2019-05-15T11:23:03.411Z,23.79
2019-05-15T11:24:04.810Z,23.69
2019-05-15T11:25:09.259Z,23.69
2019-05-15T11:26:08.772Z,23.69
2019-05-15T11:27:09.981Z,23.98
2019-05-15T11:28:10.341Z,24.46
2019-05-15T11:29:11.749Z,24.66
2019-05-15T11:30:13.150Z,24.76
2019-05-15T11:31:14.559Z,24.28
2019-05-15T11:32:15.964Z,23.71
2019-05-15T11:33:18.850Z,23.61
2019-05-15T11:34:18.823Z,24.39
2019-05-15T11:35:20.126Z,23.71
2019-05-15T11:36:21.508Z,23.61
2019-05-15T11:37:22.931Z,23.61
2019-05-15T11:38:24.332Z,23.90
2019-05-15T11:39:25.741Z,23.99
2019-05-15T11:40:28.404Z,24.28
2019-05-15T11:41:29.565Z,23.90
2019-05-15T11:42:29.914Z,23.99
2019-05-15T11:43:31.318Z,24.66
2019-05-15T11:44:32.731Z,24.66
2019-05-15T11:45:34.142Z,24.57
2019-05-15T11:46:35.541Z,24.86
2019-05-15T11:47:39.099Z,25.24
2019-05-15T11:48:39.146Z,25.43
2019-05-15T11:49:39.671Z,24.57
2019-05-15T11:50:41.078Z,24.66
2019-05-15T11:51:42.503Z,25.23
2019-05-15T11:52:43.919Z,24.95
2019-05-15T11:53:45.323Z,24.57
2019-05-15T11:54:49.191Z,25.05
2019-05-15T11:55:48.268Z,24.57
2019-05-15T11:56:49.484Z,24.09
2019-05-15T11:57:52.316Z,23.79
2019-05-15T11:58:52.251Z,23.88
2019-05-15T11:59:55.361Z,24.65
2019-05-15T12:00:55.067Z,25.32
2019-05-15T12:01:58.028Z,25.61
2019-05-15T12:02:58.414Z,25.89
2019-05-15T12:03:59.255Z,25.20
2019-05-15T12:05:00.629Z,25.40
2019-05-15T12:06:14.789Z,26.07
2019-05-15T12:07:03.411Z,26.54
2019-05-15T12:08:04.805Z,26.74
2019-05-15T12:09:06.226Z,26.45
2019-05-15T12:10:10.522Z,26.54
2019-05-15T12:11:11.828Z,26.35
2019-05-15T12:12:10.406Z,26.74
2019-05-15T12:13:11.804Z,26.35
2019-05-15T12:14:13.204Z,25.97
2019-05-15T12:15:14.599Z,26.27
2019-05-15T12:16:16.002Z,26.46
2019-05-15T12:17:18.959Z,26.45
2019-05-15T12:18:18.771Z,26.64
2019-05-15T12:19:20.190Z,26.35
2019-05-15T12:20:21.584Z,26.82
2019-05-15T12:21:22.981Z,27.01
2019-05-15T12:22:24.386Z,27.30
2019-05-15T12:23:25.797Z,27.39
2019-05-15T12:24:32.762Z,28.06
2019-05-15T12:25:31.622Z,27.97
2019-05-15T12:26:29.904Z,27.97
2019-05-15T12:27:31.312Z,27.97
2019-05-15T12:28:32.702Z,28.16
2019-05-15T12:29:34.113Z,27.59
2019-05-15T12:30:35.517Z,26.63
2019-05-15T12:31:38.897Z,26.43
2019-05-15T12:32:40.262Z,26.63
2019-05-15T12:33:39.657Z,27.39
2019-05-15T12:34:41.057Z,27.49
2019-05-15T12:35:42.479Z,27.49
2019-05-15T12:36:52.039Z,27.78
2019-05-15T12:37:45.255Z,28.16
2019-05-15T12:38:50.033Z,28.45
2019-05-15T12:39:49.279Z,29.01
2019-05-15T13:00:19.379Z,31.21
2019-05-15T13:01:21.894Z,30.83
2019-05-15T13:02:22.190Z,30.72
2019-05-15T13:03:23.581Z,30.81
2019-05-15T13:04:24.982Z,31.20
2019-05-15T13:05:28.529Z,31.29
2019-05-15T13:06:28.553Z,31.58
2019-05-15T13:07:29.135Z,31.96
2019-05-15T13:08:30.565Z,31.87
2019-05-15T13:09:31.972Z,31.67
2019-05-15T13:10:33.387Z,31.67
2019-05-15T13:11:34.782Z,31.67
2019-05-15T13:12:38.800Z,31.76
2019-05-15T13:13:37.740Z,32.42
2019-05-15T13:14:39.078Z,32.52
2019-05-15T13:15:41.283Z,32.62
2019-05-15T13:16:41.772Z,32.62
2019-05-15T13:17:43.163Z,33.00
2019-05-15T13:18:44.560Z,33.38
2019-05-15T13:19:48.089Z,33.67
2019-05-15T13:20:48.989Z,33.49
2019-05-15T13:21:51.222Z,33.78
2019-05-15T13:23:51.673Z,33.49
2019-05-15T13:24:53.075Z,33.78
2019-05-15T13:25:54.477Z,33.59
2019-05-15T13:26:55.875Z,33.11
2019-05-15T13:27:58.080Z,32.82
2019-05-15T13:28:58.681Z,32.73
2019-05-15T13:30:00.100Z,33.01
2019-05-15T13:31:01.489Z,32.92